createdAt,value
2016-07-30T00:00:52.374Z,82.2
2016-07-30T00:01:52.402Z,82.29
2016-07-30T00:02:52.432Z,82.29
2016-07-30T00:03:52.459Z,82.39
2016-07-30T00:04:52.485Z,83.61
2016-07-30T00:05:52.515Z,83.74
2016-07-30T00:06:52.539Z,83.07
2016-07-30T00:08:07.495Z,83.51
2016-07-30T00:08:52.599Z,84.18
2016-07-30T00:10:52.652Z,84.56
2016-07-30T00:11:52.679Z,84.95
2016-07-30T00:12:52.709Z,84.56
2016-07-30T00:13:52.737Z,85.34
2016-07-30T00:14:52.764Z,85.82
2016-07-30T00:15:52.791Z,85.24
2016-07-30T00:16:52.817Z,85.34
2016-07-30T00:17:52.850Z,85.05
2016-07-30T00:18:52.875Z,85.72
2016-07-30T00:20:52.928Z,86.3
2016-07-30T00:21:52.959Z,86.11
2016-07-30T00:22:52.990Z,86.21
2016-07-30T00:23:53.019Z,86.88
2016-07-30T00:25:53.067Z,86.01
2016-07-30T00:26:53.097Z,85.43
2016-07-30T00:27:53.122Z,86.59
2016-07-30T00:28:53.150Z,86.59
2016-07-30T00:29:53.231Z,86.74
2016-07-30T00:30:53.213Z,86.74
2016-07-30T00:31:53.235Z,85.97
2016-07-30T00:32:53.264Z,85.82
2016-07-30T00:33:53.291Z,86.4
2016-07-30T00:34:53.314Z,86.88
2016-07-30T00:35:53.346Z,86.07
2016-07-30T00:36:53.371Z,87.26
2016-07-30T00:37:53.403Z,86.78
2016-07-30T00:38:53.430Z,87.46
2016-07-30T00:40:08.378Z,87.51
2016-07-30T00:40:53.488Z,86.88
2016-07-30T00:41:53.507Z,86.74
2016-07-30T00:42:53.535Z,87.36
2016-07-30T00:43:53.564Z,87.17
2016-07-30T00:44:53.589Z,87.94
2016-07-30T00:45:53.619Z,87.7
2016-07-30T00:46:53.650Z,87.74
2016-07-30T00:47:53.674Z,87.94
2016-07-30T00:48:53.701Z,87.55
2016-07-30T00:49:53.730Z,87.94
2016-07-30T00:50:53.762Z,87.9
2016-07-30T00:52:53.812Z,87.12
2016-07-30T00:53:53.840Z,87.32
2016-07-30T00:54:53.873Z,88.13
2016-07-30T00:56:08.820Z,87.55
2016-07-30T00:56:53.924Z,87.94
2016-07-30T00:57:53.953Z,87.22
2016-07-30T00:58:53.980Z,87.41
2016-07-30T00:59:54.013Z,87.94
2016-07-30T01:00:54.033Z,88.13
2016-07-30T01:01:54.064Z,87.41
2016-07-30T01:02:54.091Z,88.28
2016-07-30T01:03:54.126Z,87.99
2016-07-30T01:04:54.149Z,88.09
2016-07-30T01:05:54.170Z,87.74
2016-07-30T01:06:54.198Z,87.22
2016-07-30T01:07:54.232Z,87.32
2016-07-30T01:09:54.284Z,87.99
2016-07-30T01:10:54.315Z,87.99
2016-07-30T01:12:09.262Z,88.09
2016-07-30T01:12:54.364Z,87.41
2016-07-30T01:13:54.395Z,88.76
2016-07-30T01:14:54.422Z,87.41
2016-07-30T01:15:54.448Z,88.28
2016-07-30T01:16:54.478Z,88.71
2016-07-30T01:17:54.504Z,88.18
2016-07-30T01:18:54.543Z,88.42
2016-07-30T01:19:54.566Z,88.28
2016-07-30T01:20:54.586Z,88.85
2016-07-30T01:21:54.614Z,88.57
2016-07-30T01:22:54.637Z,88.76
2016-07-30T01:24:54.698Z,89.34
2016-07-30T01:25:54.723Z,88.57
2016-07-30T01:28:09.706Z,89.53
2016-07-30T01:28:54.809Z,89.72
2016-07-30T01:29:54.839Z,89.2
2016-07-30T01:30:54.865Z,89.39
2016-07-30T01:31:54.891Z,89.1
2016-07-30T01:32:54.914Z,89.29
2016-07-30T01:33:54.942Z,89.39
2016-07-30T01:34:54.974Z,89.29
2016-07-30T01:35:55.002Z,89.97
2016-07-30T01:36:55.029Z,89.97
2016-07-30T01:37:55.056Z,89.97
2016-07-30T01:38:55.083Z,90.16
2016-07-30T01:39:55.108Z,89.78
2016-07-30T01:40:55.142Z,90.16
2016-07-30T01:41:55.162Z,90.35
2016-07-30T01:43:10.117Z,90.35
2016-07-30T01:44:55.248Z,90.55
2016-07-30T01:45:55.291Z,90.73
2016-07-30T01:46:55.304Z,90.59
2016-07-30T01:47:55.330Z,91.46
2016-07-30T01:48:55.358Z,91.08
2016-07-30T01:49:55.382Z,90.98
2016-07-30T01:50:55.417Z,90.89
2016-07-30T01:51:55.450Z,90.89
2016-07-30T01:52:55.465Z,91.36
2016-07-30T01:53:55.493Z,91.66
2016-07-30T01:54:55.523Z,91.56
2016-07-30T01:55:55.550Z,91.46
2016-07-30T01:56:55.574Z,91.27
2016-07-30T01:57:55.605Z,91.36
2016-07-30T01:58:55.633Z,90.89
2016-07-30T01:59:55.659Z,91.27
2016-07-30T02:00:55.684Z,90.98
2016-07-30T02:01:55.712Z,91.08
2016-07-30T02:02:55.737Z,90.98
2016-07-30T02:03:55.769Z,90.31
2016-07-30T02:04:55.800Z,90.98
2016-07-30T02:05:55.834Z,90.41
2016-07-30T02:06:55.850Z,90.41
2016-07-30T02:07:55.881Z,90.31
2016-07-30T02:08:55.906Z,90.69
2016-07-30T02:09:55.936Z,90.5
2016-07-30T02:10:55.956Z,90.59
2016-07-30T02:11:55.991Z,90.41
2016-07-30T02:13:56.044Z,90.21
2016-07-30T02:15:10.994Z,90.21
2016-07-30T02:15:56.097Z,90.69
2016-07-30T02:16:56.133Z,90.98
2016-07-30T02:17:56.155Z,91.17
2016-07-30T02:18:56.177Z,90.79
2016-07-30T02:19:56.203Z,90.98
2016-07-30T02:20:56.232Z,90.89
2016-07-30T02:21:56.263Z,91.08
2016-07-30T02:22:56.291Z,90.98
2016-07-30T02:23:56.311Z,91.56
2016-07-30T02:24:56.342Z,91.08
2016-07-30T02:25:56.370Z,91.36
2016-07-30T02:26:56.403Z,91.17
2016-07-30T02:27:57.117Z,90.98
2016-07-30T02:29:56.476Z,90.79
2016-07-30T02:31:11.431Z,91.17
2016-07-30T02:31:56.535Z,91.08
2016-07-30T02:32:56.557Z,91.27
2016-07-30T02:33:56.590Z,91.27
2016-07-30T02:34:56.614Z,91.08
2016-07-30T02:35:56.692Z,91.27
2016-07-30T02:36:56.665Z,91.27
2016-07-30T02:37:56.696Z,91.36
2016-07-30T02:38:56.727Z,90.98
2016-07-30T02:39:56.748Z,90.89
2016-07-30T02:40:56.782Z,90.59
2016-07-30T02:41:56.805Z,89.64
2016-07-30T02:42:56.833Z,90.21
2016-07-30T02:44:56.891Z,90.02
2016-07-30T02:45:56.922Z,89.83
2016-07-30T02:47:11.864Z,89.39
2016-07-30T02:48:56.997Z,88.91
2016-07-30T02:49:57.020Z,88.53
2016-07-30T02:50:57.051Z,88.91
2016-07-30T02:51:57.086Z,88.43
2016-07-30T02:52:57.108Z,88.71
2016-07-30T02:53:57.137Z,88.71
2016-07-30T02:54:57.159Z,88.91
2016-07-30T02:55:57.188Z,88.91
2016-07-30T02:56:57.211Z,89.29
2016-07-30T02:57:57.241Z,89.1
2016-07-30T02:59:57.291Z,89.2
2016-07-30T03:00:57.324Z,89.54
2016-07-30T03:01:57.349Z,89.44
2016-07-30T03:03:12.303Z,88.71
2016-07-30T03:03:57.407Z,89.44
2016-07-30T03:04:57.428Z,89.64
2016-07-30T03:05:57.458Z,89.64
2016-07-30T03:06:57.487Z,89.83
2016-07-30T03:07:57.507Z,90.21
2016-07-30T03:08:57.543Z,90.59
2016-07-30T03:09:57.564Z,90.41
2016-07-30T03:10:57.595Z,90.69
2016-07-30T03:11:57.625Z,91.08
2016-07-30T03:12:57.646Z,91.08
2016-07-30T03:13:57.674Z,90.98
2016-07-30T03:15:57.731Z,90.73
2016-07-30T03:16:57.762Z,90.59
2016-07-30T03:18:12.726Z,90.98
2016-07-30T03:18:57.814Z,91.27
2016-07-30T03:19:57.848Z,91.27
2016-07-30T03:20:57.868Z,91.75
2016-07-30T03:21:57.896Z,91.27
2016-07-30T03:22:57.921Z,91.36
2016-07-30T03:23:57.949Z,91.94
2016-07-30T03:24:57.976Z,91.46
2016-07-30T03:25:58.003Z,92.04
2016-07-30T03:26:58.031Z,92.13
2016-07-30T03:27:58.054Z,91.61
2016-07-30T03:28:58.088Z,92.09
2016-07-30T03:29:58.109Z,92.57
2016-07-30T03:30:58.139Z,92.57
2016-07-30T03:31:58.166Z,92.57
2016-07-30T03:32:58.190Z,93.24
2016-07-30T03:33:58.221Z,92.76
2016-07-30T03:35:58.271Z,92.86
2016-07-30T03:36:58.312Z,92.52
2016-07-30T03:37:58.327Z,92.67
2016-07-30T03:38:58.359Z,92.67
2016-07-30T03:39:58.447Z,92.47
2016-07-30T03:40:58.410Z,92.71
2016-07-30T03:41:58.437Z,92.38
2016-07-30T03:42:58.462Z,92.47
2016-07-30T03:43:58.491Z,93.15
2016-07-30T03:44:58.520Z,93.24
2016-07-30T03:45:58.546Z,92.67
2016-07-30T03:46:58.570Z,93.15
2016-07-30T03:47:58.600Z,92.76
2016-07-30T03:48:58.626Z,93.15
2016-07-30T03:50:13.577Z,93.53
2016-07-30T03:50:58.685Z,93.44
2016-07-30T03:51:58.707Z,93.44
2016-07-30T03:52:58.743Z,93.44
2016-07-30T03:53:58.765Z,93.05
2016-07-30T03:54:58.793Z,92.86
2016-07-30T03:55:58.819Z,92.67
2016-07-30T03:56:58.856Z,92.96
2016-07-30T03:57:58.866Z,92.76
2016-07-30T03:58:58.902Z,92.86
2016-07-30T03:59:58.923Z,92.96
2016-07-30T04:00:58.955Z,92.76
2016-07-30T04:02:59.005Z,92.57
2016-07-30T04:03:59.035Z,92.57
2016-07-30T04:04:59.061Z,93.15
2016-07-30T04:06:14.012Z,92.76
2016-07-30T04:06:59.117Z,92.67
2016-07-30T04:07:59.142Z,92.96
2016-07-30T04:08:59.173Z,92.67
2016-07-30T04:09:59.196Z,92.52
2016-07-30T04:10:59.219Z,92.04
2016-07-30T04:11:59.248Z,91.75
2016-07-30T04:12:59.282Z,91.66
2016-07-30T04:13:59.303Z,91.27
2016-07-30T04:14:59.331Z,90.98
2016-07-30T04:15:59.356Z,91.46
2016-07-30T04:16:59.387Z,90.64
2016-07-30T04:18:59.447Z,89.68
2016-07-30T04:19:59.471Z,89.49
2016-07-30T04:20:59.499Z,89.49
2016-07-30T04:22:14.446Z,88.71
2016-07-30T04:22:59.556Z,88.62
2016-07-30T04:23:59.578Z,88.62
2016-07-30T04:24:59.609Z,88.76
2016-07-30T04:25:59.636Z,88.71
2016-07-30T04:26:59.659Z,88.76
2016-07-30T04:27:59.683Z,88.76
2016-07-30T04:28:59.714Z,87.8
2016-07-30T04:29:59.743Z,87.8
2016-07-30T04:30:59.768Z,88.57
2016-07-30T04:31:59.794Z,87.8
2016-07-30T04:32:59.828Z,87.6
2016-07-30T04:33:59.850Z,88.57
2016-07-30T04:35:59.906Z,87.22
2016-07-30T04:36:59.932Z,87.41
2016-07-30T04:38:14.888Z,87.9
2016-07-30T04:38:59.992Z,86.93
2016-07-30T04:40:00.018Z,86.35
2016-07-30T04:41:00.041Z,86.74
2016-07-30T04:42:00.077Z,86.35
2016-07-30T04:43:00.104Z,86.65
2016-07-30T04:44:00.124Z,85.91
2016-07-30T04:45:00.158Z,86.01
2016-07-30T04:46:00.181Z,86.49
2016-07-30T04:47:00.212Z,86.3
2016-07-30T04:48:00.241Z,85.91
2016-07-30T04:49:00.267Z,85.34
2016-07-30T04:52:00.352Z,85.91
2016-07-30T04:53:15.300Z,84.86
2016-07-30T04:54:00.410Z,85.43
2016-07-30T04:55:01.125Z,85.53
2016-07-30T04:56:00.464Z,84.86
2016-07-30T04:57:00.489Z,84.95
2016-07-30T04:58:00.515Z,84.76
2016-07-30T04:59:00.541Z,85.19
2016-07-30T05:00:00.572Z,84.38
2016-07-30T05:01:00.599Z,84.9
2016-07-30T05:02:00.626Z,84.38
2016-07-30T05:03:00.653Z,84.12
2016-07-30T05:04:00.679Z,83.94
2016-07-30T05:05:00.708Z,83.74
2016-07-30T05:06:00.733Z,83.36
2016-07-30T05:07:00.764Z,83.26
2016-07-30T05:08:00.794Z,82.97
2016-07-30T05:09:00.824Z,83.07
2016-07-30T05:10:00.849Z,83.07
2016-07-30T05:11:00.872Z,83.36
2016-07-30T05:12:00.907Z,83.36
2016-07-30T05:13:00.933Z,83.16
2016-07-30T05:14:00.960Z,83.74
2016-07-30T05:15:00.983Z,82.29
2016-07-30T05:16:01.017Z,82.39
2016-07-30T05:17:01.053Z,82.87
2016-07-30T05:18:01.066Z,82.39
2016-07-30T05:19:01.099Z,82.39
2016-07-30T05:20:01.128Z,82.29
2016-07-30T05:21:01.155Z,82.1
2016-07-30T05:22:01.185Z,81.37
2016-07-30T05:23:01.210Z,80.79
2016-07-30T05:24:01.238Z,80.99
2016-07-30T05:25:16.189Z,79.93
2016-07-30T05:27:01.320Z,78.52
2016-07-30T05:28:01.349Z,77.75
2016-07-30T05:29:01.374Z,76.57
2016-07-30T05:30:01.407Z,74.25
2016-07-30T05:31:01.434Z,74.48
2016-07-30T05:32:01.465Z,73.36
2016-07-30T05:33:01.496Z,71.81
2016-07-30T05:34:01.517Z,71.72
2016-07-30T05:35:01.550Z,71.81
2016-07-30T05:38:01.638Z,72.45
2016-07-30T05:39:01.663Z,73.48
2016-07-30T05:40:01.693Z,73.52
2016-07-30T05:41:16.649Z,73.8
2016-07-30T05:42:01.752Z,73.77
2016-07-30T05:43:01.831Z,73.77
2016-07-30T05:44:01.816Z,73.96
2016-07-30T05:45:01.840Z,73.67
2016-07-30T05:46:01.869Z,73.96
2016-07-30T05:47:01.903Z,73.58
2016-07-30T05:49:01.954Z,73.58
2016-07-30T05:50:01.988Z,73.58
2016-07-30T05:51:02.018Z,73.19
2016-07-30T05:52:02.097Z,72.55
2016-07-30T05:53:02.077Z,73.28
2016-07-30T05:54:02.104Z,73.38
2016-07-30T05:55:02.134Z,73.58
2016-07-30T05:56:02.161Z,73.38
2016-07-30T05:57:17.112Z,73.58
2016-07-30T05:58:02.221Z,73
2016-07-30T05:59:02.246Z,72.52
2016-07-30T06:00:02.278Z,72.8
2016-07-30T06:01:02.307Z,73.44
2016-07-30T06:02:02.333Z,72.38
2016-07-30T06:03:02.364Z,72.61
2016-07-30T06:04:02.406Z,73.06
2016-07-30T06:05:02.422Z,72.61
2016-07-30T06:06:02.451Z,73.44
2016-07-30T06:07:02.478Z,72.86
2016-07-30T06:08:02.503Z,73
2016-07-30T06:09:02.540Z,72.71
2016-07-30T06:10:02.564Z,71.55
2016-07-30T06:11:02.598Z,72.22
2016-07-30T06:12:02.624Z,71.45
2016-07-30T06:13:17.585Z,70.58
2016-07-30T06:15:02.722Z,71.74
2016-07-30T06:16:02.741Z,71.94
2016-07-30T06:17:02.769Z,70.87
2016-07-30T06:18:02.801Z,71.16
2016-07-30T06:19:02.823Z,70.68
2016-07-30T06:20:02.856Z,70.1
2016-07-30T06:21:02.887Z,71.61
2016-07-30T06:22:02.914Z,70.97
2016-07-30T06:23:02.937Z,71.7
2016-07-30T06:24:02.966Z,71.26
2016-07-30T06:26:03.032Z,68.33
2016-07-30T06:27:03.061Z,65.56
2016-07-30T06:28:18.061Z,63.21
2016-07-30T06:29:03.121Z,62.4
2016-07-30T06:30:03.145Z,60.68
2016-07-30T06:31:03.178Z,61.26
2016-07-30T06:32:03.212Z,60.1
2016-07-30T06:33:03.238Z,59.64
2016-07-30T06:34:03.267Z,59.64
2016-07-30T06:35:03.302Z,58.58
2016-07-30T06:36:03.332Z,57.9
2016-07-30T06:37:03.368Z,58.39
2016-07-30T06:38:03.396Z,59.06
2016-07-30T06:39:03.433Z,58.97
2016-07-30T06:40:03.456Z,58.97
2016-07-30T06:41:03.487Z,59.91
2016-07-30T06:42:03.517Z,59.33
2016-07-30T06:43:03.551Z,58.77
2016-07-30T06:45:03.616Z,58.06
2016-07-30T06:46:03.646Z,58.65
2016-07-30T06:47:03.683Z,58.55
2016-07-30T06:48:03.711Z,59.88
2016-07-30T06:49:03.741Z,59.88
2016-07-30T06:50:03.775Z,58.65
2016-07-30T06:51:03.802Z,57.03
2016-07-30T06:52:03.832Z,55.04
2016-07-30T06:53:03.868Z,52.86
2016-07-30T06:54:03.907Z,51.94
2016-07-30T06:55:04.690Z,49.05
2016-07-30T06:56:03.964Z,48.71
2016-07-30T06:57:04.001Z,47.78
2016-07-30T06:58:04.032Z,45.73
2016-07-30T06:59:04.064Z,44.97
2016-07-30T07:00:19.024Z,44.8
2016-07-30T07:01:04.137Z,43.95
2016-07-30T07:02:04.166Z,43.95
2016-07-30T07:03:04.199Z,44.26
2016-07-30T07:04:04.237Z,45.7
2016-07-30T07:05:04.267Z,46.14
2016-07-30T07:06:04.304Z,45.83
2016-07-30T07:07:04.334Z,46.22
2016-07-30T07:08:04.367Z,47.46
2016-07-30T07:09:04.404Z,48.61
2016-07-30T07:10:04.435Z,49.24
2016-07-30T07:11:04.469Z,50.78
2016-07-30T07:12:04.509Z,50.12
2016-07-30T07:13:04.545Z,50.78
2016-07-30T07:14:04.570Z,49.24
2016-07-30T07:15:04.607Z,48.32
2016-07-30T07:16:19.565Z,47.09
2016-07-30T07:17:04.676Z,47
2016-07-30T07:18:04.705Z,48.05
2016-07-30T07:19:04.741Z,48.12
2016-07-30T07:20:04.768Z,48.02
2016-07-30T07:21:05.503Z,47.36
2016-07-30T07:22:04.844Z,47.53
2016-07-30T07:23:04.869Z,47.8
2016-07-30T07:24:04.903Z,47.83
2016-07-30T07:25:04.939Z,47.63
2016-07-30T07:26:04.981Z,48.05
2016-07-30T07:27:05.008Z,47.27
2016-07-30T07:28:05.037Z,47.07
2016-07-30T07:29:05.070Z,46.47
2016-07-30T07:30:05.111Z,46.66
2016-07-30T07:31:05.143Z,46.56
2016-07-30T07:32:20.099Z,45.88
2016-07-30T07:33:05.208Z,46.08
2016-07-30T07:34:05.243Z,46.56
2016-07-30T07:35:05.273Z,47.42
2016-07-30T07:36:05.309Z,47.39
2016-07-30T07:37:05.343Z,49.51
2016-07-30T07:38:05.374Z,49.29
2016-07-30T07:39:05.411Z,49.12
2016-07-30T07:40:05.443Z,49.41
2016-07-30T07:41:05.476Z,48.73
2016-07-30T07:42:05.505Z,49.32
2016-07-30T07:43:05.538Z,48.41
2016-07-30T07:44:05.570Z,49.17
2016-07-30T07:45:05.608Z,49.39
2016-07-30T07:46:05.649Z,48.61
2016-07-30T07:47:05.672Z,48.41
2016-07-30T07:48:20.630Z,49.46
2016-07-30T07:49:05.739Z,48.58
2016-07-30T07:50:05.783Z,47.83
2016-07-30T07:51:05.799Z,47.93
2016-07-30T07:52:05.836Z,48.15
2016-07-30T07:53:05.869Z,47.66
2016-07-30T07:54:05.900Z,47.98
2016-07-30T07:55:05.930Z,46.83
2016-07-30T07:56:05.967Z,46.54
2016-07-30T07:57:05.997Z,46.47
2016-07-30T07:58:06.031Z,46.34
2016-07-30T07:59:06.065Z,47.59
2016-07-30T08:00:06.098Z,48.34
2016-07-30T08:01:06.129Z,47.96
2016-07-30T08:02:06.160Z,49.19
2016-07-30T08:03:21.120Z,50.34
2016-07-30T08:04:06.231Z,49.37
2016-07-30T08:06:06.294Z,49.95
2016-07-30T08:07:06.326Z,49.76
2016-07-30T08:08:06.363Z,50.41
2016-07-30T08:09:06.395Z,50.41
2016-07-30T08:10:06.424Z,50.6
2016-07-30T08:11:06.457Z,51.06
2016-07-30T08:12:06.489Z,50.68
2016-07-30T08:13:06.520Z,51.26
2016-07-30T08:14:06.551Z,52.03
2016-07-30T08:15:06.581Z,51.93
2016-07-30T08:16:06.613Z,51.33
2016-07-30T08:17:06.644Z,51.91
2016-07-30T08:18:06.680Z,51.16
2016-07-30T08:19:06.717Z,51.55
2016-07-30T08:21:06.771Z,51.65
2016-07-30T08:22:06.802Z,52.3
2016-07-30T08:23:06.835Z,52.03
2016-07-30T08:24:06.870Z,51.72
2016-07-30T08:25:06.901Z,51.16
2016-07-30T08:26:06.931Z,51.16
2016-07-30T08:27:06.962Z,51.26
2016-07-30T08:28:06.996Z,51.16
2016-07-30T08:29:07.024Z,49.85
2016-07-30T08:30:07.057Z,49.39
2016-07-30T08:31:07.088Z,49
2016-07-30T08:32:07.120Z,49.78
2016-07-30T08:33:07.152Z,49.58
2016-07-30T08:34:07.181Z,49.58
2016-07-30T08:35:22.139Z,49.71
2016-07-30T08:36:07.247Z,48.9
2016-07-30T08:37:07.278Z,49.19
2016-07-30T08:38:07.366Z,49.1
2016-07-30T08:39:07.342Z,49
2016-07-30T08:40:07.373Z,49.46
2016-07-30T08:41:07.403Z,49.82
2016-07-30T08:42:07.438Z,50.87
2016-07-30T08:43:07.470Z,50.77
2016-07-30T08:44:07.505Z,52.11
2016-07-30T08:45:07.533Z,52.69
2016-07-30T08:46:07.564Z,53.08
2016-07-30T08:47:07.595Z,52.23
2016-07-30T08:48:07.631Z,50.38
2016-07-30T08:50:07.693Z,51.09
2016-07-30T08:51:22.648Z,50.6
2016-07-30T08:53:07.792Z,50.51
2016-07-30T08:54:07.818Z,50.6
2016-07-30T08:55:07.850Z,50.43
2016-07-30T08:56:07.886Z,50.82
2016-07-30T08:57:07.910Z,51.31
2016-07-30T08:58:07.949Z,51.21
2016-07-30T08:59:07.981Z,52.28
2016-07-30T09:00:08.008Z,50.53
2016-07-30T09:01:08.043Z,51.01
2016-07-30T09:02:08.071Z,50.82
2016-07-30T09:03:08.101Z,51.38
2016-07-30T09:04:08.135Z,51.35
2016-07-30T09:05:08.165Z,52.13
2016-07-30T09:06:08.202Z,51.26
2016-07-30T09:07:23.156Z,51.26
2016-07-30T09:08:08.261Z,50.87
2016-07-30T09:09:09.120Z,50.38
2016-07-30T09:10:08.328Z,50.51
2016-07-30T09:11:08.406Z,50.8
2016-07-30T09:12:08.389Z,49.73
2016-07-30T09:13:08.429Z,50.41
2016-07-30T09:14:08.446Z,50.6
2016-07-30T09:15:08.480Z,51.38
2016-07-30T09:16:08.511Z,49.92
2016-07-30T09:17:08.553Z,49.82
2016-07-30T09:18:08.577Z,49.85
2016-07-30T09:19:08.608Z,48.78
2016-07-30T09:21:08.674Z,49.92
2016-07-30T09:23:23.657Z,50.6
2016-07-30T09:24:08.765Z,49.82
2016-07-30T09:25:08.793Z,49.61
2016-07-30T09:26:08.828Z,49.41
2016-07-30T09:27:08.860Z,50.58
2016-07-30T09:28:08.890Z,51.14
2016-07-30T09:29:08.918Z,50.77
2016-07-30T09:30:08.947Z,49.8
2016-07-30T09:31:08.979Z,51.45
2016-07-30T09:32:09.014Z,51.45
2016-07-30T09:33:09.053Z,50.48
2016-07-30T09:34:09.075Z,52.03
2016-07-30T09:35:09.109Z,50.99
2016-07-30T09:37:09.171Z,50.96
2016-07-30T09:38:24.128Z,49.32
2016-07-30T09:39:09.236Z,48.93
2016-07-30T09:40:09.267Z,49.51
2016-07-30T09:41:09.294Z,49.9
2016-07-30T09:42:09.376Z,49.15
2016-07-30T09:43:09.360Z,49.44
2016-07-30T09:44:09.387Z,50.87
2016-07-30T09:45:09.424Z,50.38
2016-07-30T09:46:09.452Z,49.51
2016-07-30T09:47:09.483Z,49.9
2016-07-30T09:48:09.515Z,49.99
2016-07-30T09:49:09.547Z,49.8
2016-07-30T09:50:09.573Z,49.41
2016-07-30T09:51:09.602Z,50.38
2016-07-30T09:52:09.637Z,50.48
2016-07-30T09:53:09.671Z,49.05
2016-07-30T09:55:09.738Z,49.77
2016-07-30T09:56:09.759Z,49.46
2016-07-30T09:57:09.792Z,50.21
2016-07-30T09:58:09.820Z,49.15
2016-07-30T09:59:09.853Z,50.24
2016-07-30T10:00:09.882Z,50.21
2016-07-30T10:01:09.916Z,50.14
2016-07-30T10:02:09.943Z,50.6
2016-07-30T10:03:09.976Z,51.09
2016-07-30T10:04:10.007Z,51.09
2016-07-30T10:05:10.037Z,50.7
2016-07-30T10:06:10.066Z,50.99
2016-07-30T10:07:10.100Z,51.57
2016-07-30T10:08:10.132Z,50.6
2016-07-30T10:09:10.159Z,51.67
2016-07-30T10:10:25.119Z,51.93
2016-07-30T10:11:10.328Z,51.16
2016-07-30T10:12:10.260Z,52.22
2016-07-30T10:13:10.285Z,52.25
2016-07-30T10:14:10.312Z,51.67
2016-07-30T10:15:10.348Z,51.45
2016-07-30T10:16:10.389Z,52.06
2016-07-30T10:17:10.406Z,52.06
2016-07-30T10:18:10.436Z,52.03
2016-07-30T10:19:10.472Z,52.25
2016-07-30T10:20:10.503Z,51.47
2016-07-30T10:21:10.527Z,51.57
2016-07-30T10:22:10.557Z,52.25
2016-07-30T10:23:10.589Z,51.76
2016-07-30T10:24:10.623Z,52.08
2016-07-30T10:25:10.653Z,51.5
2016-07-30T10:26:25.607Z,51.21
2016-07-30T10:29:10.774Z,50.82
2016-07-30T10:30:10.802Z,50.82
2016-07-30T10:31:10.839Z,50.24
2016-07-30T10:32:10.865Z,50.62
2016-07-30T10:33:10.896Z,50.82
2016-07-30T10:34:10.927Z,50.14
2016-07-30T10:35:10.956Z,50.7
2016-07-30T10:36:11.002Z,52.34
2016-07-30T10:37:11.023Z,52.06
2016-07-30T10:38:11.050Z,51.28
2016-07-30T10:39:11.082Z,51.31
2016-07-30T10:40:11.111Z,51.11
2016-07-30T10:41:11.147Z,52.15
2016-07-30T10:42:26.095Z,52.08
2016-07-30T10:44:11.235Z,51.11
2016-07-30T10:45:11.270Z,51.11
2016-07-30T10:46:11.295Z,52.18
2016-07-30T10:47:11.330Z,52.28
2016-07-30T10:48:11.356Z,51.59
2016-07-30T10:49:11.390Z,52.76
2016-07-30T10:50:11.418Z,51.28
2016-07-30T10:51:11.446Z,51.79
2016-07-30T10:52:11.479Z,52.73
2016-07-30T10:54:11.542Z,51.98
2016-07-30T10:56:11.600Z,51.59
2016-07-30T10:57:11.633Z,52.08
2016-07-30T10:58:26.585Z,52.37
2016-07-30T10:59:11.695Z,52.18
2016-07-30T11:00:11.725Z,53.05
2016-07-30T11:01:11.752Z,52.28
2016-07-30T11:02:11.790Z,52.28
2016-07-30T11:03:11.815Z,53.66
2016-07-30T11:04:11.846Z,53.17
2016-07-30T11:05:11.877Z,52.4
2016-07-30T11:06:11.953Z,53.17
2016-07-30T11:07:11.936Z,52.5
2016-07-30T11:08:11.967Z,52.3
2016-07-30T11:09:11.998Z,53.37
2016-07-30T11:10:12.029Z,53.73
2016-07-30T11:11:12.707Z,54.34
2016-07-30T11:12:12.086Z,53.15
2016-07-30T11:13:27.044Z,54.34
2016-07-30T11:14:12.149Z,53.24
2016-07-30T11:16:12.213Z,53.73
2016-07-30T11:17:12.247Z,53.17
2016-07-30T11:18:12.268Z,54.14
2016-07-30T11:19:12.296Z,52.5
2016-07-30T11:20:12.331Z,52.33
2016-07-30T11:21:12.365Z,51.06
2016-07-30T11:22:12.390Z,53.1
2016-07-30T11:23:12.420Z,52.15
2016-07-30T11:24:12.455Z,50.89
2016-07-30T11:26:12.512Z,50.82
2016-07-30T11:27:12.541Z,51.01
2016-07-30T11:28:12.574Z,50.92
2016-07-30T11:29:12.607Z,50.14
2016-07-30T11:30:12.643Z,49.56
2016-07-30T11:31:12.672Z,50.07
2016-07-30T11:32:12.699Z,49.39
2016-07-30T11:33:12.738Z,49.68
2016-07-30T11:34:12.765Z,49.68
2016-07-30T11:35:12.793Z,50.07
2016-07-30T11:36:12.824Z,48.83
2016-07-30T11:37:12.849Z,49.29
2016-07-30T11:38:12.887Z,48.15
2016-07-30T11:39:12.921Z,48.61
2016-07-30T11:40:12.949Z,49
2016-07-30T11:41:12.983Z,47.74
2016-07-30T11:43:13.043Z,48.32
2016-07-30T11:44:13.074Z,48.8
2016-07-30T11:45:28.030Z,48.61
2016-07-30T11:46:13.137Z,48.8
2016-07-30T11:47:13.167Z,48.61
2016-07-30T11:48:13.199Z,47.83
2016-07-30T11:49:13.226Z,47.37
2016-07-30T11:50:13.263Z,47.86
2016-07-30T11:51:13.292Z,47.86
2016-07-30T11:52:13.323Z,48.34
2016-07-30T11:53:13.353Z,48.46
2016-07-30T11:55:13.416Z,47.2
2016-07-30T11:56:13.449Z,47.2
2016-07-30T11:57:13.483Z,47.69
2016-07-30T11:58:14.207Z,47.1
2016-07-30T12:01:28.531Z,45.76
2016-07-30T12:02:13.636Z,45.45
2016-07-30T12:03:13.672Z,46.61
2016-07-30T12:04:13.705Z,48.83
2016-07-30T12:05:13.732Z,48.15
2016-07-30T12:06:13.765Z,47.08
2016-07-30T12:07:13.798Z,48.15
2016-07-30T12:08:13.829Z,47.76
2016-07-30T12:10:13.887Z,46.78
2016-07-30T12:11:13.919Z,46.88
2016-07-30T12:12:13.957Z,46.13
2016-07-30T12:13:13.989Z,46.51
2016-07-30T12:14:14.067Z,47.54
2016-07-30T12:15:14.047Z,46.78
2016-07-30T12:16:14.084Z,47
2016-07-30T12:17:29.038Z,45.94
2016-07-30T12:18:14.141Z,45.86
2016-07-30T12:19:14.177Z,46.05
2016-07-30T12:20:14.207Z,44.4
2016-07-30T12:21:14.241Z,43.74
2016-07-30T12:22:14.269Z,45.47
2016-07-30T12:23:14.300Z,45.59
2016-07-30T12:24:14.336Z,44.13
2016-07-30T12:25:14.368Z,43.62
2016-07-30T12:26:14.403Z,44.59
2016-07-30T12:27:14.425Z,44.3
2016-07-30T12:28:14.461Z,44.49
2016-07-30T12:30:14.522Z,45.54
2016-07-30T12:31:14.553Z,45.06
2016-07-30T12:33:29.545Z,44.45
2016-07-30T12:34:14.654Z,43.89
2016-07-30T12:35:14.684Z,43.4
2016-07-30T12:37:14.749Z,43.21
2016-07-30T12:38:14.775Z,43.4
2016-07-30T12:39:14.807Z,45.72
2016-07-30T12:40:14.844Z,44.65
2016-07-30T12:41:14.868Z,44.26
2016-07-30T12:42:14.904Z,44.45
2016-07-30T12:43:14.938Z,44.06
2016-07-30T12:44:14.965Z,45.62
2016-07-30T12:45:14.995Z,43.87
2016-07-30T12:46:15.028Z,43.87
2016-07-30T12:47:15.064Z,43.96
2016-07-30T12:48:30.018Z,44.16
2016-07-30T12:51:15.188Z,44.26
2016-07-30T12:52:15.230Z,43.48
2016-07-30T12:53:15.251Z,43.09
2016-07-30T12:54:15.280Z,42.11
2016-07-30T12:55:15.310Z,43.36
2016-07-30T12:56:15.347Z,43.67
2016-07-30T12:57:15.371Z,42.6
2016-07-30T12:58:15.407Z,43.44
2016-07-30T13:00:15.472Z,44.02
2016-07-30T13:01:15.505Z,43.92
2016-07-30T13:02:15.537Z,44.31
2016-07-30T13:03:15.562Z,44.6
2016-07-30T13:04:15.594Z,44.89
2016-07-30T13:05:15.627Z,45.4
2016-07-30T13:06:15.658Z,45.31
2016-07-30T13:07:15.701Z,46.5
2016-07-30T13:08:15.734Z,44.38
2016-07-30T13:09:15.747Z,44.94
2016-07-30T13:10:15.781Z,45.52
2016-07-30T13:11:15.818Z,45.32
2016-07-30T13:12:15.894Z,44.26
2016-07-30T13:13:15.874Z,45.23
2016-07-30T13:14:15.911Z,44.55
2016-07-30T13:15:15.999Z,46.59
2016-07-30T13:16:15.973Z,44.76
2016-07-30T13:18:16.039Z,45.94
2016-07-30T13:19:16.063Z,44.4
2016-07-30T13:20:31.022Z,45.08
2016-07-30T13:21:16.130Z,44.28
2016-07-30T13:22:16.164Z,44.16
2016-07-30T13:23:16.190Z,45.62
2016-07-30T13:24:16.223Z,44.26
2016-07-30T13:26:16.287Z,45.69
2016-07-30T13:27:16.316Z,44.92
2016-07-30T13:28:16.346Z,46.25
2016-07-30T13:29:16.381Z,46.77
2016-07-30T13:30:16.417Z,46.78
2016-07-30T13:31:16.444Z,46.59
2016-07-30T13:32:16.471Z,46.03
2016-07-30T13:33:16.507Z,45.74
2016-07-30T13:34:16.535Z,44.67
2016-07-30T13:35:16.571Z,44.67
2016-07-30T13:36:31.527Z,45.45
2016-07-30T13:37:16.634Z,45.74
2016-07-30T13:39:16.695Z,44.76
2016-07-30T13:41:16.760Z,45.64
2016-07-30T13:42:16.790Z,45.54
2016-07-30T13:43:16.824Z,44.48
2016-07-30T13:44:16.853Z,44.57
2016-07-30T13:45:16.886Z,43.99
2016-07-30T13:46:16.919Z,43.89
2016-07-30T13:47:16.948Z,43.91
2016-07-30T13:48:16.978Z,43.89
2016-07-30T13:50:17.038Z,43.89
2016-07-30T13:51:17.075Z,43.4
2016-07-30T13:52:32.032Z,43.5
2016-07-30T13:53:17.142Z,44.35
2016-07-30T13:54:17.170Z,46.3